sensor_id;sensor_type;location;lat;lon;timestamp;P1;durP1;ratioP1;P2;durP2;ratioP2
13641;SDS011;6894;52.196;9.904;2023-02-15T00:01:58;9.10;;;7.73;;
13641;SDS011;6894;52.196;9.904;2023-02-15T00:04:25;8.57;;;7.10;;
13641;SDS011;6894;52.196;9.904;2023-02-15T00:07:11;10.00;;;7.77;;
13641;SDS011;6894;52.196;9.904;2023-02-15T00:09:39;9.70;;;7.37;;
13641;SDS011;6894;52.196;9.904;2023-02-15T00:12:06;11.40;;;8.27;;
13641;SDS011;6894;52.196;9.904;2023-02-15T00:14:32;10.67;;;7.43;;
13641;SDS011;6894;52.196;9.904;2023-02-15T00:17:00;10.20;;;8.37;;
13641;SDS011;6894;52.196;9.904;2023-02-15T00:19:27;8.97;;;7.80;;
13641;SDS011;6894;52.196;9.904;2023-02-15T00:21:54;9.60;;;7.60;;
13641;SDS011;6894;52.196;9.904;2023-02-15T00:24:21;10.97;;;7.80;;
13641;SDS011;6894;52.196;9.904;2023-02-15T00:26:48;8.43;;;6.97;;
13641;SDS011;6894;52.196;9.904;2023-02-15T00:29:15;9.27;;;7.03;;
13641;SDS011;6894;52.196;9.904;2023-02-15T00:31:43;10.47;;;8.03;;
13641;SDS011;6894;52.196;9.904;2023-02-15T00:34:12;8.73;;;7.20;;
13641;SDS011;6894;52.196;9.904;2023-02-15T00:36:40;14.23;;;8.23;;
13641;SDS011;6894;52.196;9.904;2023-02-15T00:39:07;9.20;;;8.13;;
13641;SDS011;6894;52.196;9.904;2023-02-15T00:41:34;10.93;;;8.57;;
13641;SDS011;6894;52.196;9.904;2023-02-15T00:44:01;10.40;;;8.33;;
13641;SDS011;6894;52.196;9.904;2023-02-15T00:46:28;9.87;;;7.87;;
13641;SDS011;6894;52.196;9.904;2023-02-15T00:48:55;12.27;;;9.03;;
13641;SDS011;6894;52.196;9.904;2023-02-15T00:51:23;7.87;;;7.07;;
13641;SDS011;6894;52.196;9.904;2023-02-15T00:53:50;13.20;;;8.53;;
13641;SDS011;6894;52.196;9.904;2023-02-15T00:56:17;10.27;;;8.43;;
13641;SDS011;6894;52.196;9.904;2023-02-15T00:58:44;10.93;;;8.10;;
13641;SDS011;6894;52.196;9.904;2023-02-15T01:01:13;10.00;;;8.17;;
13641;SDS011;6894;52.196;9.904;2023-02-15T01:03:41;11.37;;;8.70;;
13641;SDS011;6894;52.196;9.904;2023-02-15T01:06:08;9.07;;;7.73;;
13641;SDS011;6894;52.196;9.904;2023-02-15T01:08:37;9.13;;;7.37;;
13641;SDS011;6894;52.196;9.904;2023-02-15T01:11:04;8.20;;;6.53;;
13641;SDS011;6894;52.196;9.904;2023-02-15T01:13:31;10.17;;;7.57;;
13641;SDS011;6894;52.196;9.904;2023-02-15T01:15:58;10.80;;;7.80;;
13641;SDS011;6894;52.196;9.904;2023-02-15T01:18:25;18.30;;;15.57;;
13641;SDS011;6894;52.196;9.904;2023-02-15T01:20:52;12.07;;;10.87;;
13641;SDS011;6894;52.196;9.904;2023-02-15T01:23:19;10.40;;;7.30;;
13641;SDS011;6894;52.196;9.904;2023-02-15T01:25:47;9.10;;;7.07;;
13641;SDS011;6894;52.196;9.904;2023-02-15T01:28:14;9.80;;;8.03;;
13641;SDS011;6894;52.196;9.904;2023-02-15T01:30:41;10.27;;;7.33;;
13641;SDS011;6894;52.196;9.904;2023-02-15T01:33:09;9.87;;;7.20;;
13641;SDS011;6894;52.196;9.904;2023-02-15T01:35:42;7.93;;;6.90;;
13641;SDS011;6894;52.196;9.904;2023-02-15T01:38:10;9.07;;;7.93;;
13641;SDS011;6894;52.196;9.904;2023-02-15T01:40:37;8.57;;;7.67;;
13641;SDS011;6894;52.196;9.904;2023-02-15T01:43:09;11.97;;;7.83;;
13641;SDS011;6894;52.196;9.904;2023-02-15T01:45:37;9.40;;;7.60;;
13641;SDS011;6894;52.196;9.904;2023-02-15T01:48:06;10.27;;;7.53;;
13641;SDS011;6894;52.196;9.904;2023-02-15T01:50:40;8.90;;;7.17;;
13641;SDS011;6894;52.196;9.904;2023-02-15T01:53:11;10.10;;;7.40;;
13641;SDS011;6894;52.196;9.904;2023-02-15T01:55:43;9.80;;;7.77;;
13641;SDS011;6894;52.196;9.904;2023-02-15T01:58:14;11.03;;;8.17;;
13641;SDS011;6894;52.196;9.904;2023-02-15T02:00:41;7.83;;;7.03;;
13641;SDS011;6894;52.196;9.904;2023-02-15T02:03:09;10.73;;;8.33;;
13641;SDS011;6894;52.196;9.904;2023-02-15T02:05:36;9.23;;;7.47;;
13641;SDS011;6894;52.196;9.904;2023-02-15T02:08:04;11.40;;;8.40;;
13641;SDS011;6894;52.196;9.904;2023-02-15T02:10:33;10.37;;;7.73;;
13641;SDS011;6894;52.196;9.904;2023-02-15T02:13:01;10.70;;;8.40;;
13641;SDS011;6894;52.196;9.904;2023-02-15T02:15:40;10.03;;;7.80;;
13641;SDS011;6894;52.196;9.904;2023-02-15T02:18:17;12.17;;;8.33;;
13641;SDS011;6894;52.196;9.904;2023-02-15T02:24:11;10.97;;;8.13;;
13641;SDS011;6894;52.196;9.904;2023-02-15T02:26:55;10.47;;;7.70;;
13641;SDS011;6894;52.196;9.904;2023-02-15T02:29:50;13.43;;;9.10;;
13641;SDS011;6894;52.196;9.904;2023-02-15T02:35:39;10.67;;;8.17;;
13641;SDS011;6894;52.196;9.904;2023-02-15T02:38:15;7.63;;;6.73;;
13641;SDS011;6894;52.196;9.904;2023-02-15T02:40:51;10.30;;;7.23;;
13641;SDS011;6894;52.196;9.904;2023-02-15T02:43:25;8.83;;;7.47;;
13641;SDS011;6894;52.196;9.904;2023-02-15T02:45:57;10.37;;;8.10;;
13641;SDS011;6894;52.196;9.904;2023-02-15T02:48:28;11.43;;;7.40;;
13641;SDS011;6894;52.196;9.904;2023-02-15T02:50:58;11.83;;;8.00;;
13641;SDS011;6894;52.196;9.904;2023-02-15T02:53:24;10.50;;;7.53;;
13641;SDS011;6894;52.196;9.904;2023-02-15T02:55:55;11.77;;;8.47;;
13641;SDS011;6894;52.196;9.904;2023-02-15T02:58:26;9.30;;;8.30;;
13641;SDS011;6894;52.196;9.904;2023-02-15T03:01:00;11.87;;;7.83;;
13641;SDS011;6894;52.196;9.904;2023-02-15T03:03:34;9.70;;;7.93;;
13641;SDS011;6894;52.196;9.904;2023-02-15T03:06:04;11.60;;;8.13;;
13641;SDS011;6894;52.196;9.904;2023-02-15T03:08:36;9.87;;;7.80;;
13641;SDS011;6894;52.196;9.904;2023-02-15T03:11:08;10.07;;;8.07;;
13641;SDS011;6894;52.196;9.904;2023-02-15T03:13:37;9.23;;;7.13;;
13641;SDS011;6894;52.196;9.904;2023-02-15T03:16:05;10.30;;;7.70;;
13641;SDS011;6894;52.196;9.904;2023-02-15T03:18:54;7.53;;;6.57;;
13641;SDS011;6894;52.196;9.904;2023-02-15T03:21:27;9.83;;;7.77;;
13641;SDS011;6894;52.196;9.904;2023-02-15T03:24:00;8.27;;;6.60;;
13641;SDS011;6894;52.196;9.904;2023-02-15T03:26:30;9.80;;;7.23;;
13641;SDS011;6894;52.196;9.904;2023-02-15T03:29:00;10.27;;;7.80;;
13641;SDS011;6894;52.196;9.904;2023-02-15T03:31:31;11.57;;;7.80;;
13641;SDS011;6894;52.196;9.904;2023-02-15T03:34:04;12.33;;;9.07;;
13641;SDS011;6894;52.196;9.904;2023-02-15T03:36:36;10.17;;;8.20;;
13641;SDS011;6894;52.196;9.904;2023-02-15T03:39:11;14.27;;;9.70;;
13641;SDS011;6894;52.196;9.904;2023-02-15T03:41:45;10.87;;;8.23;;
13641;SDS011;6894;52.196;9.904;2023-02-15T03:44:16;12.43;;;8.60;;
13641;SDS011;6894;52.196;9.904;2023-02-15T03:46:51;12.57;;;9.43;;
13641;SDS011;6894;52.196;9.904;2023-02-15T03:49:24;11.80;;;8.23;;
13641;SDS011;6894;52.196;9.904;2023-02-15T03:51:55;8.33;;;7.07;;
13641;SDS011;6894;52.196;9.904;2023-02-15T03:54:24;10.33;;;7.93;;
13641;SDS011;6894;52.196;9.904;2023-02-15T03:57:09;8.50;;;6.70;;
13641;SDS011;6894;52.196;9.904;2023-02-15T03:59:55;9.80;;;6.87;;
13641;SDS011;6894;52.196;9.904;2023-02-15T04:02:41;8.53;;;7.57;;
13641;SDS011;6894;52.196;9.904;2023-02-15T04:05:20;12.07;;;8.90;;
13641;SDS011;6894;52.196;9.904;2023-02-15T04:07:46;8.40;;;6.87;;
13641;SDS011;6894;52.196;9.904;2023-02-15T04:10:13;12.23;;;8.90;;
13641;SDS011;6894;52.196;9.904;2023-02-15T04:12:58;9.63;;;7.60;;
13641;SDS011;6894;52.196;9.904;2023-02-15T04:15:24;10.93;;;7.90;;
13641;SDS011;6894;52.196;9.904;2023-02-15T04:18:09;8.07;;;7.13;;
13641;SDS011;6894;52.196;9.904;2023-02-15T04:20:37;12.63;;;9.30;;
13641;SDS011;6894;52.196;9.904;2023-02-15T04:23:21;10.73;;;7.97;;
13641;SDS011;6894;52.196;9.904;2023-02-15T04:26:05;12.00;;;8.60;;
13641;SDS011;6894;52.196;9.904;2023-02-15T04:28:32;9.77;;;7.20;;
13641;SDS011;6894;52.196;9.904;2023-02-15T04:30:59;13.90;;;9.03;;
13641;SDS011;6894;52.196;9.904;2023-02-15T04:33:26;9.67;;;7.90;;
13641;SDS011;6894;52.196;9.904;2023-02-15T04:35:54;13.53;;;8.87;;
13641;SDS011;6894;52.196;9.904;2023-02-15T04:38:21;10.67;;;7.90;;
13641;SDS011;6894;52.196;9.904;2023-02-15T04:40:49;10.80;;;7.97;;
13641;SDS011;6894;52.196;9.904;2023-02-15T04:43:16;10.77;;;8.73;;
13641;SDS011;6894;52.196;9.904;2023-02-15T04:45:47;13.50;;;9.53;;
13641;SDS011;6894;52.196;9.904;2023-02-15T04:48:15;9.20;;;8.10;;
13641;SDS011;6894;52.196;9.904;2023-02-15T04:50:42;10.03;;;8.63;;
13641;SDS011;6894;52.196;9.904;2023-02-15T04:53:10;8.77;;;7.60;;
13641;SDS011;6894;52.196;9.904;2023-02-15T04:55:37;10.53;;;7.43;;
13641;SDS011;6894;52.196;9.904;2023-02-15T04:58:04;9.40;;;7.87;;
13641;SDS011;6894;52.196;9.904;2023-02-15T05:00:30;11.67;;;7.83;;
13641;SDS011;6894;52.196;9.904;2023-02-15T05:02:57;8.33;;;7.43;;
13641;SDS011;6894;52.196;9.904;2023-02-15T05:05:24;12.67;;;8.80;;
13641;SDS011;6894;52.196;9.904;2023-02-15T05:07:51;9.47;;;7.73;;
13641;SDS011;6894;52.196;9.904;2023-02-15T05:10:19;11.60;;;8.00;;
13641;SDS011;6894;52.196;9.904;2023-02-15T05:12:46;10.53;;;8.10;;
13641;SDS011;6894;52.196;9.904;2023-02-15T05:15:12;10.77;;;8.03;;
13641;SDS011;6894;52.196;9.904;2023-02-15T05:17:39;10.57;;;6.60;;
13641;SDS011;6894;52.196;9.904;2023-02-15T05:20:06;9.07;;;6.80;;
13641;SDS011;6894;52.196;9.904;2023-02-15T05:22:34;10.57;;;7.30;;
13641;SDS011;6894;52.196;9.904;2023-02-15T05:25:00;10.07;;;7.63;;
13641;SDS011;6894;52.196;9.904;2023-02-15T05:27:46;10.33;;;7.23;;
13641;SDS011;6894;52.196;9.904;2023-02-15T05:30:30;8.87;;;7.00;;
13641;SDS011;6894;52.196;9.904;2023-02-15T05:32:57;12.53;;;8.60;;
13641;SDS011;6894;52.196;9.904;2023-02-15T05:35:23;10.97;;;8.40;;
13641;SDS011;6894;52.196;9.904;2023-02-15T05:37:50;11.30;;;8.37;;
13641;SDS011;6894;52.196;9.904;2023-02-15T05:40:17;10.63;;;8.20;;
13641;SDS011;6894;52.196;9.904;2023-02-15T05:42:45;12.37;;;8.57;;
13641;SDS011;6894;52.196;9.904;2023-02-15T05:45:12;15.63;;;10.50;;
13641;SDS011;6894;52.196;9.904;2023-02-15T05:47:39;8.67;;;7.73;;
13641;SDS011;6894;52.196;9.904;2023-02-15T05:50:06;14.37;;;8.80;;
13641;SDS011;6894;52.196;9.904;2023-02-15T05:52:33;13.37;;;9.20;;
13641;SDS011;6894;52.196;9.904;2023-02-15T05:55:00;12.10;;;8.47;;
13641;SDS011;6894;52.196;9.904;2023-02-15T05:57:27;16.00;;;11.17;;
13641;SDS011;6894;52.196;9.904;2023-02-15T05:59:55;14.97;;;11.63;;
13641;SDS011;6894;52.196;9.904;2023-02-15T06:02:22;16.70;;;10.97;;
13641;SDS011;6894;52.196;9.904;2023-02-15T06:04:49;12.73;;;9.37;;
13641;SDS011;6894;52.196;9.904;2023-02-15T06:07:16;23.77;;;10.93;;
13641;SDS011;6894;52.196;9.904;2023-02-15T06:09:42;17.10;;;11.37;;
13641;SDS011;6894;52.196;9.904;2023-02-15T06:12:09;12.47;;;10.47;;
13641;SDS011;6894;52.196;9.904;2023-02-15T06:14:36;16.00;;;10.33;;
13641;SDS011;6894;52.196;9.904;2023-02-15T06:17:04;13.20;;;10.07;;
13641;SDS011;6894;52.196;9.904;2023-02-15T06:19:31;13.07;;;9.17;;
13641;SDS011;6894;52.196;9.904;2023-02-15T06:21:58;13.77;;;10.07;;
13641;SDS011;6894;52.196;9.904;2023-02-15T06:24:24;15.03;;;9.03;;
13641;SDS011;6894;52.196;9.904;2023-02-15T06:26:51;11.60;;;8.27;;
13641;SDS011;6894;52.196;9.904;2023-02-15T06:29:18;14.70;;;9.73;;
13641;SDS011;6894;52.196;9.904;2023-02-15T06:31:45;11.43;;;9.17;;
13641;SDS011;6894;52.196;9.904;2023-02-15T06:34:13;162.70;;;63.37;;
13641;SDS011;6894;52.196;9.904;2023-02-15T06:36:39;150.60;;;66.47;;
13641;SDS011;6894;52.196;9.904;2023-02-15T06:39:06;36.67;;;19.67;;
13641;SDS011;6894;52.196;9.904;2023-02-15T06:41:33;14.40;;;10.73;;
13641;SDS011;6894;52.196;9.904;2023-02-15T06:44:00;14.23;;;10.33;;
13641;SDS011;6894;52.196;9.904;2023-02-15T06:46:26;14.27;;;11.80;;
13641;SDS011;6894;52.196;9.904;2023-02-15T06:48:54;20.03;;;13.47;;
13641;SDS011;6894;52.196;9.904;2023-02-15T06:51:22;14.90;;;10.70;;
13641;SDS011;6894;52.196;9.904;2023-02-15T06:53:48;20.87;;;12.53;;
13641;SDS011;6894;52.196;9.904;2023-02-15T06:56:15;13.50;;;11.03;;
13641;SDS011;6894;52.196;9.904;2023-02-15T06:58:42;24.53;;;15.10;;
13641;SDS011;6894;52.196;9.904;2023-02-15T07:01:10;16.40;;;12.27;;
13641;SDS011;6894;52.196;9.904;2023-02-15T07:03:37;17.83;;;12.60;;
13641;SDS011;6894;52.196;9.904;2023-02-15T07:06:04;13.53;;;11.23;;
13641;SDS011;6894;52.196;9.904;2023-02-15T07:08:34;15.97;;;11.43;;
13641;SDS011;6894;52.196;9.904;2023-02-15T07:11:01;14.53;;;11.83;;
13641;SDS011;6894;52.196;9.904;2023-02-15T07:13:42;16.03;;;11.80;;
13641;SDS011;6894;52.196;9.904;2023-02-15T07:16:09;14.07;;;11.50;;
13641;SDS011;6894;52.196;9.904;2023-02-15T07:18:39;18.10;;;12.83;;
13641;SDS011;6894;52.196;9.904;2023-02-15T07:21:06;15.07;;;11.67;;
13641;SDS011;6894;52.196;9.904;2023-02-15T07:23:35;20.17;;;13.20;;
13641;SDS011;6894;52.196;9.904;2023-02-15T07:26:02;16.07;;;12.47;;
13641;SDS011;6894;52.196;9.904;2023-02-15T07:28:30;20.13;;;13.70;;
13641;SDS011;6894;52.196;9.904;2023-02-15T07:30:57;15.57;;;12.90;;
13641;SDS011;6894;52.196;9.904;2023-02-15T07:33:24;20.60;;;13.80;;
13641;SDS011;6894;52.196;9.904;2023-02-15T07:35:52;17.13;;;12.67;;
13641;SDS011;6894;52.196;9.904;2023-02-15T07:38:22;19.00;;;12.53;;
13641;SDS011;6894;52.196;9.904;2023-02-15T07:40:50;14.13;;;11.80;;
13641;SDS011;6894;52.196;9.904;2023-02-15T07:43:17;18.30;;;12.63;;
13641;SDS011;6894;52.196;9.904;2023-02-15T07:45:44;14.23;;;10.80;;
13641;SDS011;6894;52.196;9.904;2023-02-15T07:48:11;17.60;;;12.53;;
13641;SDS011;6894;52.196;9.904;2023-02-15T07:50:38;13.67;;;11.03;;
13641;SDS011;6894;52.196;9.904;2023-02-15T07:53:04;18.57;;;12.90;;
13641;SDS011;6894;52.196;9.904;2023-02-15T07:55:31;17.63;;;13.03;;
13641;SDS011;6894;52.196;9.904;2023-02-15T07:57:59;20.93;;;11.20;;
13641;SDS011;6894;52.196;9.904;2023-02-15T08:00:26;15.87;;;11.63;;
13641;SDS011;6894;52.196;9.904;2023-02-15T08:02:55;12.13;;;9.93;;
13641;SDS011;6894;52.196;9.904;2023-02-15T08:05:41;17.70;;;11.37;;
13641;SDS011;6894;52.196;9.904;2023-02-15T08:08:10;14.00;;;10.83;;
13641;SDS011;6894;52.196;9.904;2023-02-15T08:10:56;13.80;;;10.60;;
13641;SDS011;6894;52.196;9.904;2023-02-15T08:13:43;12.23;;;9.43;;
13641;SDS011;6894;52.196;9.904;2023-02-15T08:16:24;15.83;;;10.67;;
13641;SDS011;6894;52.196;9.904;2023-02-15T08:18:53;12.07;;;10.00;;
13641;SDS011;6894;52.196;9.904;2023-02-15T08:21:20;14.10;;;10.13;;
13641;SDS011;6894;52.196;9.904;2023-02-15T08:23:48;9.97;;;7.93;;
13641;SDS011;6894;52.196;9.904;2023-02-15T08:26:14;11.93;;;8.67;;
13641;SDS011;6894;52.196;9.904;2023-02-15T08:28:44;9.67;;;8.03;;
13641;SDS011;6894;52.196;9.904;2023-02-15T08:31:12;10.33;;;8.30;;
13641;SDS011;6894;52.196;9.904;2023-02-15T08:33:40;10.97;;;9.47;;
13641;SDS011;6894;52.196;9.904;2023-02-15T08:36:08;9.63;;;7.67;;
13641;SDS011;6894;52.196;9.904;2023-02-15T08:38:37;11.40;;;8.67;;
13641;SDS011;6894;52.196;9.904;2023-02-15T08:41:11;9.93;;;8.80;;
13641;SDS011;6894;52.196;9.904;2023-02-15T08:43:39;10.70;;;8.90;;
13641;SDS011;6894;52.196;9.904;2023-02-15T08:46:08;9.40;;;8.23;;
13641;SDS011;6894;52.196;9.904;2023-02-15T08:48:36;9.53;;;7.80;;
13641;SDS011;6894;52.196;9.904;2023-02-15T08:51:04;10.73;;;7.70;;
13641;SDS011;6894;52.196;9.904;2023-02-15T08:53:32;10.67;;;7.77;;
13641;SDS011;6894;52.196;9.904;2023-02-15T08:55:59;9.37;;;7.07;;
13641;SDS011;6894;52.196;9.904;2023-02-15T08:58:26;8.50;;;6.73;;
13641;SDS011;6894;52.196;9.904;2023-02-15T09:00:54;7.00;;;6.10;;
13641;SDS011;6894;52.196;9.904;2023-02-15T09:03:22;9.20;;;7.03;;
13641;SDS011;6894;52.196;9.904;2023-02-15T09:05:49;8.47;;;6.73;;
13641;SDS011;6894;52.196;9.904;2023-02-15T09:08:16;9.53;;;6.57;;
13641;SDS011;6894;52.196;9.904;2023-02-15T09:10:42;7.57;;;6.17;;
13641;SDS011;6894;52.196;9.904;2023-02-15T09:13:09;7.63;;;6.23;;
13641;SDS011;6894;52.196;9.904;2023-02-15T09:15:36;8.37;;;6.97;;
13641;SDS011;6894;52.196;9.904;2023-02-15T09:18:03;16.20;;;11.53;;
13641;SDS011;6894;52.196;9.904;2023-02-15T09:20:32;10.73;;;7.27;;
13641;SDS011;6894;52.196;9.904;2023-02-15T09:23:01;7.67;;;6.47;;
13641;SDS011;6894;52.196;9.904;2023-02-15T09:25:28;7.17;;;6.47;;
13641;SDS011;6894;52.196;9.904;2023-02-15T09:27:55;8.60;;;7.23;;
13641;SDS011;6894;52.196;9.904;2023-02-15T09:30:22;7.87;;;7.17;;
13641;SDS011;6894;52.196;9.904;2023-02-15T09:32:49;7.80;;;7.00;;
13641;SDS011;6894;52.196;9.904;2023-02-15T09:35:15;7.40;;;6.70;;
13641;SDS011;6894;52.196;9.904;2023-02-15T09:37:44;7.67;;;6.93;;
13641;SDS011;6894;52.196;9.904;2023-02-15T09:40:11;12.90;;;8.17;;
13641;SDS011;6894;52.196;9.904;2023-02-15T09:45:40;11.07;;;6.97;;
13641;SDS011;6894;52.196;9.904;2023-02-15T09:48:25;8.97;;;7.97;;
13641;SDS011;6894;52.196;9.904;2023-02-15T09:51:15;7.77;;;6.97;;
13641;SDS011;6894;52.196;9.904;2023-02-15T09:53:56;8.20;;;7.40;;
13641;SDS011;6894;52.196;9.904;2023-02-15T09:56:36;7.43;;;6.67;;
13641;SDS011;6894;52.196;9.904;2023-02-15T09:59:10;8.20;;;7.40;;
13641;SDS011;6894;52.196;9.904;2023-02-15T10:01:43;7.63;;;6.87;;
13641;SDS011;6894;52.196;9.904;2023-02-15T10:04:21;7.60;;;6.80;;
13641;SDS011;6894;52.196;9.904;2023-02-15T10:07:00;6.73;;;6.03;;
13641;SDS011;6894;52.196;9.904;2023-02-15T10:09:41;6.77;;;6.07;;
13641;SDS011;6894;52.196;9.904;2023-02-15T10:12:22;7.30;;;6.60;;
13641;SDS011;6894;52.196;9.904;2023-02-15T10:15:13;6.80;;;6.07;;
13641;SDS011;6894;52.196;9.904;2023-02-15T10:17:52;5.50;;;5.00;;
13641;SDS011;6894;52.196;9.904;2023-02-15T10:20:27;6.80;;;6.13;;
13641;SDS011;6894;52.196;9.904;2023-02-15T10:23:09;6.20;;;5.67;;
13641;SDS011;6894;52.196;9.904;2023-02-15T10:25:50;6.33;;;5.73;;
13641;SDS011;6894;52.196;9.904;2023-02-15T10:28:26;6.97;;;6.20;;
13641;SDS011;6894;52.196;9.904;2023-02-15T10:31:06;6.73;;;6.13;;
13641;SDS011;6894;52.196;9.904;2023-02-15T10:33:40;7.07;;;6.40;;
13641;SDS011;6894;52.196;9.904;2023-02-15T10:36:15;6.77;;;6.00;;
13641;SDS011;6894;52.196;9.904;2023-02-15T10:38:56;6.70;;;6.07;;
13641;SDS011;6894;52.196;9.904;2023-02-15T10:41:33;6.00;;;5.40;;
13641;SDS011;6894;52.196;9.904;2023-02-15T10:44:22;6.93;;;6.23;;
13641;SDS011;6894;52.196;9.904;2023-02-15T10:47:02;6.70;;;5.90;;
13641;SDS011;6894;52.196;9.904;2023-02-15T10:49:43;6.50;;;5.90;;
13641;SDS011;6894;52.196;9.904;2023-02-15T10:52:25;5.70;;;5.20;;
13641;SDS011;6894;52.196;9.904;2023-02-15T10:55:02;6.50;;;5.90;;
13641;SDS011;6894;52.196;9.904;2023-02-15T10:57:41;7.37;;;6.63;;
13641;SDS011;6894;52.196;9.904;2023-02-15T11:00:16;7.70;;;5.70;;
13641;SDS011;6894;52.196;9.904;2023-02-15T11:03:01;6.43;;;5.80;;
13641;SDS011;6894;52.196;9.904;2023-02-15T11:05:45;6.90;;;6.13;;
13641;SDS011;6894;52.196;9.904;2023-02-15T11:08:20;6.70;;;6.00;;
13641;SDS011;6894;52.196;9.904;2023-02-15T11:10:51;6.67;;;6.07;;
13641;SDS011;6894;52.196;9.904;2023-02-15T11:13:22;7.27;;;6.40;;
13641;SDS011;6894;52.196;9.904;2023-02-15T11:15:53;7.37;;;6.67;;
13641;SDS011;6894;52.196;9.904;2023-02-15T11:18:23;6.20;;;5.30;;
13641;SDS011;6894;52.196;9.904;2023-02-15T11:20:54;6.90;;;6.30;;
13641;SDS011;6894;52.196;9.904;2023-02-15T11:23:25;6.30;;;5.70;;
13641;SDS011;6894;52.196;9.904;2023-02-15T11:25:54;6.83;;;5.97;;
13641;SDS011;6894;52.196;9.904;2023-02-15T11:28:27;7.17;;;6.40;;
13641;SDS011;6894;52.196;9.904;2023-02-15T11:31:00;7.27;;;6.57;;
13641;SDS011;6894;52.196;9.904;2023-02-15T11:33:37;7.57;;;6.87;;
13641;SDS011;6894;52.196;9.904;2023-02-15T11:36:09;6.77;;;6.17;;
13641;SDS011;6894;52.196;9.904;2023-02-15T11:38:39;7.17;;;6.47;;
13641;SDS011;6894;52.196;9.904;2023-02-15T11:41:09;6.47;;;5.87;;
13641;SDS011;6894;52.196;9.904;2023-02-15T11:43:39;6.50;;;5.80;;
13641;SDS011;6894;52.196;9.904;2023-02-15T11:46:10;6.30;;;5.70;;
13641;SDS011;6894;52.196;9.904;2023-02-15T11:48:40;6.53;;;5.77;;
13641;SDS011;6894;52.196;9.904;2023-02-15T11:51:08;7.00;;;6.07;;
13641;SDS011;6894;52.196;9.904;2023-02-15T11:53:38;6.57;;;5.87;;
13641;SDS011;6894;52.196;9.904;2023-02-15T11:56:09;6.30;;;5.70;;
13641;SDS011;6894;52.196;9.904;2023-02-15T11:58:42;6.13;;;5.53;;
13641;SDS011;6894;52.196;9.904;2023-02-15T12:01:12;6.13;;;4.70;;
13641;SDS011;6894;52.196;9.904;2023-02-15T12:03:43;6.37;;;5.60;;
13641;SDS011;6894;52.196;9.904;2023-02-15T12:06:15;6.10;;;5.50;;
13641;SDS011;6894;52.196;9.904;2023-02-15T12:08:55;5.53;;;5.03;;
13641;SDS011;6894;52.196;9.904;2023-02-15T12:11:30;6.13;;;5.53;;
13641;SDS011;6894;52.196;9.904;2023-02-15T12:14:02;6.03;;;5.43;;
13641;SDS011;6894;52.196;9.904;2023-02-15T12:16:32;6.40;;;5.77;;
13641;SDS011;6894;52.196;9.904;2023-02-15T12:19:10;7.00;;;6.30;;
13641;SDS011;6894;52.196;9.904;2023-02-15T12:21:44;7.87;;;7.07;;
13641;SDS011;6894;52.196;9.904;2023-02-15T12:24:16;7.43;;;6.73;;
13641;SDS011;6894;52.196;9.904;2023-02-15T12:26:55;7.17;;;6.53;;
13641;SDS011;6894;52.196;9.904;2023-02-15T12:29:27;8.10;;;7.30;;
13641;SDS011;6894;52.196;9.904;2023-02-15T12:31:56;7.93;;;6.83;;
13641;SDS011;6894;52.196;9.904;2023-02-15T12:34:25;7.27;;;6.57;;
13641;SDS011;6894;52.196;9.904;2023-02-15T12:36:56;8.93;;;7.67;;
13641;SDS011;6894;52.196;9.904;2023-02-15T12:39:27;8.87;;;6.80;;
13641;SDS011;6894;52.196;9.904;2023-02-15T12:42:02;8.63;;;7.73;;
13641;SDS011;6894;52.196;9.904;2023-02-15T12:44:32;7.73;;;6.97;;
13641;SDS011;6894;52.196;9.904;2023-02-15T12:47:01;9.37;;;8.43;;
13641;SDS011;6894;52.196;9.904;2023-02-15T12:49:30;8.00;;;7.30;;
13641;SDS011;6894;52.196;9.904;2023-02-15T12:51:58;8.83;;;7.77;;
13641;SDS011;6894;52.196;9.904;2023-02-15T12:54:30;9.23;;;7.90;;
13641;SDS011;6894;52.196;9.904;2023-02-15T12:57:12;8.27;;;7.47;;
13641;SDS011;6894;52.196;9.904;2023-02-15T12:59:55;7.83;;;7.10;;
13641;SDS011;6894;52.196;9.904;2023-02-15T13:02:24;8.30;;;6.83;;
13641;SDS011;6894;52.196;9.904;2023-02-15T13:04:53;7.53;;;6.83;;
13641;SDS011;6894;52.196;9.904;2023-02-15T13:07:21;8.47;;;7.57;;
13641;SDS011;6894;52.196;9.904;2023-02-15T13:09:49;7.87;;;7.07;;
13641;SDS011;6894;52.196;9.904;2023-02-15T13:12:18;8.83;;;6.87;;
13641;SDS011;6894;52.196;9.904;2023-02-15T13:14:48;7.40;;;6.47;;
13641;SDS011;6894;52.196;9.904;2023-02-15T13:17:19;8.13;;;7.30;;
13641;SDS011;6894;52.196;9.904;2023-02-15T13:19:54;8.83;;;7.40;;
13641;SDS011;6894;52.196;9.904;2023-02-15T13:22:25;9.57;;;7.40;;
13641;SDS011;6894;52.196;9.904;2023-02-15T13:24:56;8.27;;;7.40;;
13641;SDS011;6894;52.196;9.904;2023-02-15T13:27:26;9.00;;;7.37;;
13641;SDS011;6894;52.196;9.904;2023-02-15T13:30:00;7.40;;;6.47;;
13641;SDS011;6894;52.196;9.904;2023-02-15T13:32:38;7.60;;;6.80;;
13641;SDS011;6894;52.196;9.904;2023-02-15T13:35:10;7.53;;;6.73;;
13641;SDS011;6894;52.196;9.904;2023-02-15T13:40:53;7.37;;;6.63;;
13641;SDS011;6894;52.196;9.904;2023-02-15T13:43:27;7.50;;;6.70;;
13641;SDS011;6894;52.196;9.904;2023-02-15T13:46:05;8.47;;;7.10;;
13641;SDS011;6894;52.196;9.904;2023-02-15T13:48:44;9.47;;;7.77;;
13641;SDS011;6894;52.196;9.904;2023-02-15T13:51:20;7.47;;;6.57;;
13641;SDS011;6894;52.196;9.904;2023-02-15T13:56:57;7.67;;;6.30;;
13641;SDS011;6894;52.196;9.904;2023-02-15T13:59:46;9.23;;;7.00;;
13641;SDS011;6894;52.196;9.904;2023-02-15T14:02:38;7.30;;;6.53;;
13641;SDS011;6894;52.196;9.904;2023-02-15T14:05:32;9.23;;;6.53;;
13641;SDS011;6894;52.196;9.904;2023-02-15T14:08:09;9.47;;;6.93;;
13641;SDS011;6894;52.196;9.904;2023-02-15T14:10:51;9.63;;;7.90;;
13641;SDS011;6894;52.196;9.904;2023-02-15T14:13:39;9.30;;;8.00;;
13641;SDS011;6894;52.196;9.904;2023-02-15T14:16:25;9.27;;;7.90;;
13641;SDS011;6894;52.196;9.904;2023-02-15T14:19:01;10.10;;;8.30;;
13641;SDS011;6894;52.196;9.904;2023-02-15T14:21:41;9.30;;;7.70;;
13641;SDS011;6894;52.196;9.904;2023-02-15T14:24:16;10.00;;;7.97;;
13641;SDS011;6894;52.196;9.904;2023-02-15T14:26:52;9.23;;;7.87;;
13641;SDS011;6894;52.196;9.904;2023-02-15T14:29:34;8.80;;;7.90;;
13641;SDS011;6894;52.196;9.904;2023-02-15T14:32:12;9.07;;;7.60;;
13641;SDS011;6894;52.196;9.904;2023-02-15T14:34:44;8.33;;;7.43;;
13641;SDS011;6894;52.196;9.904;2023-02-15T14:37:17;9.73;;;8.23;;
13641;SDS011;6894;52.196;9.904;2023-02-15T14:39:52;11.50;;;8.40;;
13641;SDS011;6894;52.196;9.904;2023-02-15T14:42:44;10.23;;;8.23;;
13641;SDS011;6894;52.196;9.904;2023-02-15T14:45:19;11.97;;;8.87;;
13641;SDS011;6894;52.196;9.904;2023-02-15T14:47:55;9.63;;;8.60;;
13641;SDS011;6894;52.196;9.904;2023-02-15T14:50:41;10.03;;;8.07;;
13641;SDS011;6894;52.196;9.904;2023-02-15T14:56:15;8.93;;;7.80;;
13641;SDS011;6894;52.196;9.904;2023-02-15T15:01:41;10.07;;;7.90;;
13641;SDS011;6894;52.196;9.904;2023-02-15T15:04:09;10.90;;;9.17;;
13641;SDS011;6894;52.196;9.904;2023-02-15T15:06:40;10.27;;;8.33;;
13641;SDS011;6894;52.196;9.904;2023-02-15T15:09:10;11.77;;;7.87;;
13641;SDS011;6894;52.196;9.904;2023-02-15T15:11:44;9.87;;;8.40;;
13641;SDS011;6894;52.196;9.904;2023-02-15T15:17:06;10.23;;;8.37;;
13641;SDS011;6894;52.196;9.904;2023-02-15T15:22:39;9.87;;;7.73;;
13641;SDS011;6894;52.196;9.904;2023-02-15T15:25:11;10.03;;;7.53;;
13641;SDS011;6894;52.196;9.904;2023-02-15T15:27:54;11.73;;;7.73;;
13641;SDS011;6894;52.196;9.904;2023-02-15T15:42:42;10.63;;;8.07;;
13641;SDS011;6894;52.196;9.904;2023-02-15T15:48:22;11.70;;;8.60;;
13641;SDS011;6894;52.196;9.904;2023-02-15T15:50:58;12.87;;;9.37;;
13641;SDS011;6894;52.196;9.904;2023-02-15T15:53:27;10.20;;;8.93;;
13641;SDS011;6894;52.196;9.904;2023-02-15T15:55:58;12.90;;;9.13;;
13641;SDS011;6894;52.196;9.904;2023-02-15T15:58:27;10.17;;;8.10;;
13641;SDS011;6894;52.196;9.904;2023-02-15T16:00:58;8.90;;;7.83;;
13641;SDS011;6894;52.196;9.904;2023-02-15T16:03:29;10.17;;;8.10;;